Hitchin, United Kingdom
Current Conditions -  °F | °C
As of 10:50 PM on Monday 24 Nov 2014 (Local Time) from EGGW Reporting Station
Clear Clear  
Wind Chill: 36°   Ceiling: Unl
Heat Index: 36°   Visibility: 6mi
Dew Point: 36°   Wind: 3mph
Humidity: 100%   Direction: NA
Pressure: 30.3"   Gusts: NA
Location:  52.04°N, 0.27°W
Report Text: EGGW 242250Z VRB03KT CAVOK 02/02 Q1026
Loading
Personal Weather Stations






























Interactive Weather Map New forecast layout! Learn more

10-Day Weather Forecast

Advertisements
Track Severe Weather on mobile